Time;durP1;ratioP1;P1;durP2;ratioP2;P2;SDS_P1;SDS_P2;PMS_P1;PMS_P2;Temp;Humidity;BMP_temperature;BMP_pressure;BME280_temperature;BME280_humidity;BME280_pressure;Samples;Min_cycle;Max_cycle;Signal;HPM_P1;HPM_P2
2023/03/31 00:02:06;;;;;;;26.52;8.40;;;;;;;;;;5044378;28;20704;-58
2023/03/31 00:04:32;;;;;;;28.80;8.77;;;;;;;;;;5052717;28;20036;-57
2023/03/31 00:06:58;;;;;;;30.70;8.75;;;;;;;;;;5048637;28;20404;-57
2023/03/31 00:09:24;;;;;;;26.13;8.93;;;;;;;;;;5051157;28;20417;-57
2023/03/31 00:11:51;;;;;;;22.75;7.97;;;;;;;;;;5031834;28;20048;-57
2023/03/31 00:14:18;;;;;;;23.27;9.18;;;;;;;;;;5049312;28;20120;-57
2023/03/31 00:16:44;;;;;;;33.45;9.00;;;;;;;;;;5048123;28;20052;-58
2023/03/31 00:19:16;;;;;;;19.08;7.90;;;;;;;;;;5031905;28;20086;-57
2023/03/31 00:21:47;;;;;;;27.47;8.47;;;;;;;;;;5051134;28;20052;-57
2023/03/31 00:24:14;;;;;;;32.83;9.30;;;;;;;;;;5037380;28;20303;-57
2023/03/31 00:26:40;;;;;;;25.92;8.27;;;;;;;;;;5049973;28;20032;-57
2023/03/31 00:29:07;;;;;;;21.52;7.63;;;;;;;;;;5045940;28;20032;-58
2023/03/31 00:31:33;;;;;;;32.05;7.97;;;;;;;;;;5010121;28;20063;-57
2023/03/31 00:34:00;;;;;;;22.23;8.35;;;;;;;;;;5052856;28;20108;-57
2023/03/31 00:36:30;;;;;;;27.23;9.15;;;;;;;;;;5047043;28;20043;-58
2023/03/31 00:39:07;;;;;;;28.02;7.85;;;;;;;;;;5031018;28;20051;-57
2023/03/31 00:41:34;;;;;;;26.08;7.60;;;;;;;;;;5044969;28;20195;-58
2023/03/31 00:44:01;;;;;;;33.58;9.10;;;;;;;;;;5049033;28;20085;-57
2023/03/31 00:46:29;;;;;;;26.80;9.02;;;;;;;;;;5050640;28;20115;-57
2023/03/31 00:48:57;;;;;;;24.75;7.38;;;;;;;;;;5032386;28;20060;-58
2023/03/31 00:51:25;;;;;;;28.88;10.02;;;;;;;;;;5029456;28;20048;-58
2023/03/31 00:53:58;;;;;;;30.38;7.90;;;;;;;;;;5057806;28;20039;-57
2023/03/31 00:56:26;;;;;;;27.55;7.22;;;;;;;;;;5046156;28;20085;-57
2023/03/31 00:58:52;;;;;;;21.80;7.97;;;;;;;;;;5032374;28;20041;-57
2023/03/31 01:01:23;;;;;;;18.45;8.38;;;;;;;;;;5047757;28;20048;-59
2023/03/31 01:03:50;;;;;;;24.77;7.90;;;;;;;;;;5046376;28;20040;-57
2023/03/31 01:06:18;;;;;;;28.23;7.10;;;;;;;;;;5029989;28;20478;-57
2023/03/31 01:08:46;;;;;;;26.98;8.45;;;;;;;;;;5049363;28;20052;-57
2023/03/31 01:11:15;;;;;;;27.42;7.53;;;;;;;;;;5055245;28;20037;-57
2023/03/31 01:13:41;;;;;;;26.80;8.63;;;;;;;;;;5056287;28;20051;-57
2023/03/31 01:16:08;;;;;;;26.35;9.98;;;;;;;;;;5049562;28;20119;-57
2023/03/31 01:18:34;;;;;;;20.92;8.38;;;;;;;;;;5048756;28;20040;-57
2023/03/31 01:21:29;;;;;;;16.80;6.60;;;14.20;99.90;;;;;;5056964;28;20120;-57
2023/03/31 01:24:14;;;;;;;20.50;6.93;;;;;;;;;;5045633;28;20045;-57
2023/03/31 01:26:58;;;;;;;27.77;7.50;;;;;;;;;;5042328;28;20043;-57
2023/03/31 01:29:26;;;;;;;26.67;8.50;;;;;;;;;;5027524;28;20033;-57
2023/03/31 01:32:11;;;;;;;23.05;7.90;;;;;;;;;;5047998;28;20037;-57
2023/03/31 01:34:37;;;;;;;19.77;7.07;;;;;;;;;;5049392;28;20033;-57
2023/03/31 01:37:34;;;;;;;21.70;7.70;;;;;;;;;;5033741;28;20471;-57
2023/03/31 01:40:09;;;;;;;19.50;7.93;;;;;;;;;;5046037;28;20056;-57
2023/03/31 01:42:44;;;;;;;27.88;8.23;;;;;;;;;;5048965;28;20048;-57
2023/03/31 01:45:16;;;;;;;22.33;7.38;;;;;;;;;;5042572;28;20037;-58
2023/03/31 01:47:56;;;;;;;16.27;6.75;;;;;;;;;;5049975;28;20544;-58
2023/03/31 01:50:25;;;;;;;21.27;7.88;;;;;;;;;;5045033;28;20041;-57
2023/03/31 01:52:59;;;;;;;23.48;7.78;;;;;;;;;;5051018;28;20036;-58
2023/03/31 01:55:31;;;;;;;28.95;8.55;;;;;;;;;;5037268;28;20559;-57
2023/03/31 01:58:01;;;;;;;22.63;7.93;;;;;;;;;;5044426;28;20051;-57
2023/03/31 02:00:33;;;;;;;19.80;6.65;;;;;;;;;;5050623;28;20482;-57
2023/03/31 02:03:09;;;;;;;23.55;7.38;;;;;;;;;;5052499;28;20041;-57
2023/03/31 02:05:42;;;;;;;24.67;7.65;;;;;;;;;;5051818;28;20162;-58
2023/03/31 02:08:16;;;;;;;18.52;7.75;;;;;;;;;;5056717;28;20029;-57
2023/03/31 02:10:43;;;;;;;27.95;7.78;;;;;;;;;;5052924;28;20037;-57
2023/03/31 02:13:10;;;;;;;17.20;6.63;;;;;;;;;;5052219;28;20041;-57
2023/03/31 02:15:38;;;;;;;21.40;7.32;;;;;;;;;;5058462;28;20106;-57
2023/03/31 02:18:09;;;;;;;24.73;6.80;;;;;;;;;;5056038;28;20132;-57
2023/03/31 02:20:37;;;;;;;28.50;6.22;;;;;;;;;;5054342;28;20086;-57
2023/03/31 02:23:04;;;;;;;24.77;6.30;;;;;;;;;;5057230;28;20060;-57
2023/03/31 02:25:36;;;;;;;32.88;10.07;;;;;;;;;;5050939;28;20103;-57
2023/03/31 02:28:06;;;;;;;18.13;6.73;;;;;;;;;;5052524;28;20043;-57
2023/03/31 02:30:55;;;;;;;22.98;7.28;;;;;;;;;;5049431;28;20041;-57
2023/03/31 02:33:21;;;;;;;20.55;6.45;;;;;;;;;;5038287;28;20273;-57
2023/03/31 02:35:47;;;;;;;20.95;6.82;;;;;;;;;;5051621;28;20041;-57
2023/03/31 02:38:14;;;;;;;27.20;7.63;;;;;;;;;;5056389;28;20120;-57
2023/03/31 02:40:40;;;;;;;21.42;6.40;;;;;;;;;;5052603;28;20589;-57
2023/03/31 02:43:07;;;;;;;18.13;7.00;;;;;;;;;;5050879;28;20493;-57
2023/03/31 02:45:43;;;;;;;20.95;7.15;;;;;;;;;;5052146;28;20059;-57
2023/03/31 02:48:30;;;;;;;17.90;5.90;;;;;;;;;;5049622;28;20059;-57
2023/03/31 02:51:02;;;;;;;21.38;6.78;;;;;;;;;;5046385;28;20079;-57
2023/03/31 02:53:45;;;;;;;22.05;7.28;;;;;;;;;;5051674;28;20033;-57
2023/03/31 02:56:26;;;;;;;19.73;8.13;;;;;;;;;;5050854;28;20043;-57
2023/03/31 02:59:02;;;;;;;22.45;7.30;;;;;;;;;;5046361;28;20033;-57
2023/03/31 03:01:48;;;;;;;18.10;6.32;;;;;;;;;;5034743;28;20047;-57
2023/03/31 03:04:25;;;;;;;16.85;6.22;;;;;;;;;;5051245;28;20047;-57
2023/03/31 03:07:02;;;;;;;17.55;7.38;;;;;;;;;;5054027;28;20629;-57
2023/03/31 03:09:31;;;;;;;25.75;7.50;;;;;;;;;;5060552;28;20039;-57
2023/03/31 03:12:05;;;;;;;17.20;5.15;;;;;;;;;;5049930;28;20064;-57
2023/03/31 03:14:35;;;;;;;19.75;5.72;;;;;;;;;;5057777;28;20041;-57
2023/03/31 03:17:05;;;;;;;23.00;6.90;;;;;;;;;;5037578;28;20135;-57
2023/03/31 03:19:31;;;;;;;21.55;7.10;;;;;;;;;;5051811;28;20461;-57
2023/03/31 03:21:58;;;;;;;23.60;6.60;;;;;;;;;;5043478;28;20124;-57
2023/03/31 03:24:28;;;;;;;21.63;6.43;;;;;;;;;;5055585;28;20048;-57
2023/03/31 03:26:54;;;;;;;19.05;5.68;;;;;;;;;;5053630;28;20071;-57
2023/03/31 03:29:21;;;;;;;17.83;7.63;;;;;;;;;;5046777;28;20051;-57
2023/03/31 03:31:47;;;;;;;19.70;6.43;;;;;;;;;;5034810;28;20048;-57
2023/03/31 03:34:13;;;;;;;16.20;5.22;;;;;;;;;;5061014;28;20058;-57
2023/03/31 03:36:39;;;;;;;16.33;6.15;;;;;;;;;;5056661;28;20041;-58
2023/03/31 03:39:06;;;;;;;16.05;5.32;;;;;;;;;;5045356;28;20049;-57
2023/03/31 03:41:33;;;;;;;19.20;6.07;;;;;;;;;;5050584;28;20507;-57
2023/03/31 03:43:59;;;;;;;18.25;5.80;;;;;;;;;;5039322;28;20056;-57
2023/03/31 03:46:26;;;;;;;18.15;6.07;;;;;;;;;;5055187;28;20037;-57
2023/03/31 03:48:52;;;;;;;12.60;5.05;;;;;;;;;;5053365;28;20052;-57
2023/03/31 03:51:18;;;;;;;14.27;4.93;;;;;;;;;;5049775;28;20040;-57
2023/03/31 03:53:44;;;;;;;20.17;5.85;;;;;;;;;;5051887;28;20402;-57
2023/03/31 03:56:11;;;;;;;10.63;5.55;;;;;;;;;;5050826;28;20041;-57
2023/03/31 03:58:37;;;;;;;15.27;5.70;;;;;;;;;;5038630;28;20041;-57
2023/03/31 04:01:03;;;;;;;15.35;6.05;;;;;;;;;;5052336;28;20424;-57
2023/03/31 04:03:30;;;;;;;11.90;5.95;;;;;;;;;;5018115;28;20047;-57
2023/03/31 04:05:56;;;;;;;14.20;5.78;;;;;;;;;;5048272;28;20041;-57
2023/03/31 04:08:22;;;;;;;10.13;5.97;;;;;;;;;;5059735;28;20036;-58
2023/03/31 04:10:49;;;;;;;15.63;5.47;;;;;;;;;;5052593;28;20513;-57
2023/03/31 04:13:15;;;;;;;17.67;6.20;;;;;;;;;;5050110;28;20060;-57
2023/03/31 04:15:42;;;;;;;15.18;5.97;;;;;;;;;;5050045;28;20543;-57
2023/03/31 04:18:09;;;;;;;13.10;6.13;;;;;;;;;;5041135;28;20041;-57
2023/03/31 04:20:38;;;;;;;10.40;5.70;;;;;;;;;;5056254;28;20150;-57
2023/03/31 04:23:08;;;;;;;13.50;6.53;;;;;;;;;;5014682;28;20080;-58
2023/03/31 04:25:37;;;;;;;17.13;6.80;;;;;;;;;;5044539;28;20044;-57
2023/03/31 04:28:05;;;;;;;14.48;6.63;;;;;;;;;;5054145;28;20076;-57
2023/03/31 04:30:32;;;;;;;10.52;5.10;;;;;;;;;;5051675;28;20548;-57
2023/03/31 04:32:59;;;;;;;14.63;6.85;;;;;;;;;;5049626;28;20041;-58
2023/03/31 04:35:27;;;;;;;16.38;6.68;;;;;;;;;;5047671;28;20502;-58
2023/03/31 04:37:57;;;;;;;13.93;6.47;;;;;;;;;;5053243;28;20047;-57
2023/03/31 04:40:26;;;;;;;10.48;5.93;;;;;;;;;;5049370;28;20048;-57
2023/03/31 04:42:52;;;;;;;17.13;6.55;;;;;;;;;;5048725;28;20073;-57
2023/03/31 04:45:19;;;;;;;14.02;6.60;;;;;;;;;;5043895;28;20083;-57
2023/03/31 04:47:45;;;;;;;12.73;5.38;;;;;;;;;;5057210;28;20058;-57
2023/03/31 04:50:11;;;;;;;9.82;6.07;;;;;;;;;;5057966;28;20486;-57
2023/03/31 04:52:38;;;;;;;12.60;6.47;;;;;;;;;;5032352;28;20045;-57
2023/03/31 04:55:05;;;;;;;13.65;6.07;;;;;;;;;;5032656;28;20041;-57
2023/03/31 04:57:31;;;;;;;13.70;5.68;;;;;;;;;;5049616;28;20497;-57
2023/03/31 04:59:57;;;;;;;11.63;5.95;;;;;;;;;;5017459;28;20037;-57
2023/03/31 05:02:23;;;;;;;14.30;6.68;;;;;;;;;;5051334;28;20102;-57
2023/03/31 05:04:50;;;;;;;12.77;5.82;;;;;;;;;;5036423;28;20045;-57
2023/03/31 05:07:17;;;;;;;12.70;6.18;;;;;;;;;;5047822;28;20060;-58
2023/03/31 05:09:43;;;;;;;14.82;7.00;;;;;;;;;;5046111;28;20610;-57
2023/03/31 05:12:09;;;;;;;12.85;6.32;;;;;;;;;;5045778;28;20173;-57
2023/03/31 05:14:35;;;;;;;18.10;7.15;;;;;;;;;;5044476;28;20052;-57
2023/03/31 05:17:01;;;;;;;10.23;6.32;;;;;;;;;;5052198;28;20513;-57
2023/03/31 05:19:27;;;;;;;15.18;6.68;;;;;;;;;;5043538;28;20049;-57
2023/03/31 05:21:53;;;;;;;12.85;7.32;;;;;;;;;;5056740;28;20048;-57
2023/03/31 05:24:20;;;;;;;11.98;6.22;;;;;;;;;;5036200;28;20513;-57
2023/03/31 05:26:51;;;;;;;15.57;6.32;;;;;;;;;;5050971;28;20116;-57
2023/03/31 05:29:20;;;;;;;16.15;7.50;;;;;;;;;;5025956;28;20075;-57
2023/03/31 05:31:47;;;;;;;13.60;6.85;;;;;;;;;;5037687;28;20055;-58
2023/03/31 05:34:13;;;;;;;12.73;5.72;;;;;;;;;;5045331;28;20046;-57
2023/03/31 05:36:39;;;;;;;16.05;6.95;;;;;;;;;;5045717;28;20040;-57
2023/03/31 05:39:06;;;;;;;14.98;6.65;;;;;;;;;;5047059;28;20041;-57
2023/03/31 05:41:33;;;;;;;12.05;6.57;;;;;;;;;;5050777;28;20072;-57
2023/03/31 05:43:59;;;;;;;16.85;6.65;;;;;;;;;;5033112;28;20119;-57
2023/03/31 05:46:26;;;;;;;14.02;6.15;;;;;;;;;;5048413;28;20056;-57
2023/03/31 05:48:52;;;;;;;15.07;6.70;;;;;;;;;;5049989;28;20359;-57
2023/03/31 05:51:18;;;;;;;14.13;6.65;;;;;;;;;;5054075;28;20041;-57
2023/03/31 05:53:44;;;;;;;14.55;6.80;;;;;;;;;;5052578;28;20037;-57
2023/03/31 05:56:11;;;;;;;13.38;6.20;;;;;;;;;;5053054;28;20104;-57
2023/03/31 05:58:37;;;;;;;12.70;6.95;;;;;;;;;;5033905;28;20049;-57
2023/03/31 06:01:08;;;;;;;10.82;6.60;;;;;;;;;;5052737;28;20040;-57
2023/03/31 06:03:35;;;;;;;10.40;7.35;;;;;;;;;;5054879;28;20424;-57
2023/03/31 06:06:04;;;;;;;9.30;6.78;;;;;;;;;;5051107;28;20037;-57
2023/03/31 06:08:30;;;;;;;11.15;6.88;;;;;;;;;;5060475;28;20059;-57
2023/03/31 06:10:56;;;;;;;11.82;6.80;;;;;;;;;;5010455;28;20037;-57
2023/03/31 06:13:23;;;;;;;10.63;6.05;;;;;;;;;;5051481;28;20065;-57
2023/03/31 06:15:53;;;;;;;10.60;5.85;;;;;;;;;;5035055;28;20099;-57
2023/03/31 06:18:19;;;;;;;9.20;5.70;;;;;;;;;;5059134;28;20045;-57
2023/03/31 06:20:45;;;;;;;9.68;6.10;;;;;;;;;;5053617;28;20106;-58
2023/03/31 06:23:11;;;;;;;15.13;6.32;;;;;;;;;;5051388;28;20040;-57
2023/03/31 06:25:38;;;;;;;8.60;5.78;;;;;;;;;;5050223;28;20482;-57
2023/03/31 06:28:06;;;;;;;12.30;5.45;;;;;;;;;;5056282;28;20041;-57
2023/03/31 06:30:32;;;;;;;12.77;5.22;;;;;;;;;;5051780;28;20174;-57
2023/03/31 06:32:59;;;;;;;11.00;5.22;;;;;;;;;;5051162;28;20041;-57
2023/03/31 06:35:25;;;;;;;10.40;5.45;;;;;;;;;;5052569;28;20044;-57
2023/03/31 06:37:51;;;;;;;8.00;5.25;;;;;;;;;;5050021;28;20040;-57
2023/03/31 06:40:18;;;;;;;10.20;5.03;;;;;;;;;;5046098;28;20060;-57
2023/03/31 06:42:44;;;;;;;8.50;5.05;;;;;;;;;;5021586;28;20044;-57
2023/03/31 06:45:10;;;;;;;10.23;4.75;;;;;;;;;;5048628;28;20218;-58
2023/03/31 06:47:37;;;;;;;11.02;5.18;;;;;;;;;;5048268;28;20053;-57
2023/03/31 06:50:07;;;;;;;8.35;4.75;;;;;;;;;;5048697;28;20056;-57
2023/03/31 06:52:33;;;;;;;10.88;4.00;;;;;;;;;;5053799;28;20048;-57
2023/03/31 06:55:00;;;;;;;6.65;4.32;;;;;;;;;;5053351;28;20063;-57
2023/03/31 06:57:26;;;;;;;10.45;4.97;;;;;;;;;;5046135;28;20098;-57
2023/03/31 06:59:53;;;;;;;9.68;3.63;;;;;;;;;;5049956;28;20064;-57
2023/03/31 07:02:19;;;;;;;6.13;3.50;;;;;;;;;;5051261;28;20507;-57
2023/03/31 07:04:45;;;;;;;8.18;4.53;;;;;;;;;;5032868;28;20037;-57
2023/03/31 07:07:12;;;;;;;5.70;3.63;;;;;;;;;;5049172;28;20087;-57
2023/03/31 07:09:38;;;;;;;9.18;4.55;;;;;;;;;;5049693;28;20040;-58
2023/03/31 07:12:04;;;;;;;6.90;3.42;;;;;;;;;;5051116;28;20754;-57
2023/03/31 07:14:31;;;;;;;9.05;4.45;;;;;;;;;;5049782;28;20457;-57
2023/03/31 07:16:57;;;;;;;7.78;3.85;;;;;;;;;;5052754;28;20045;-57
2023/03/31 07:19:24;;;;;;;5.38;3.13;;;;;;;;;;5052313;28;20032;-57
2023/03/31 07:21:50;;;;;;;8.13;3.72;;;;;;;;;;5050386;28;20044;-57
2023/03/31 07:24:16;;;;;;;7.65;3.50;;;;;;;;;;5032110;28;20052;-57
2023/03/31 07:26:43;;;;;;;8.27;3.70;;;;;;;;;;5029696;28;20395;-58
2023/03/31 07:29:09;;;;;;;10.15;3.22;;;;;;;;;;5049207;28;20098;-57
2023/03/31 07:31:35;;;;;;;10.27;4.07;;;;;;;;;;5051411;28;21540;-57
2023/03/31 07:34:04;;;;;;;5.53;3.55;;;;;;;;;;5047578;28;20044;-57
2023/03/31 07:36:30;;;;;;;6.65;3.55;;;;;;;;;;5032357;28;20056;-57
2023/03/31 07:38:57;;;;;;;4.82;3.10;;;;;;;;;;5050408;28;20048;-57
2023/03/31 07:41:24;;;;;;;8.70;3.58;;;;;;;;;;5047567;28;20157;-57
2023/03/31 07:43:51;;;;;;;5.15;2.70;;;;;;;;;;5034513;28;20052;-57
2023/03/31 07:46:18;;;;;;;8.10;3.22;;;;;;;;;;5049713;28;20090;-57
2023/03/31 07:48:45;;;;;;;4.95;3.30;;;;;;;;;;5031004;28;20108;-57
2023/03/31 07:51:12;;;;;;;6.40;3.05;;;;;;;;;;5045634;28;20183;-57
2023/03/31 07:53:38;;;;;;;6.80;4.63;;;;;;;;;;5048934;28;20082;-57
2023/03/31 07:56:05;;;;;;;8.10;3.90;;;;;;;;;;5049589;28;20033;-57
2023/03/31 07:58:31;;;;;;;7.45;3.78;;;;;;;;;;5055534;28;20052;-57
2023/03/31 08:00:57;;;;;;;8.75;3.35;;;;;;;;;;5032560;28;20043;-57
2023/03/31 08:03:23;;;;;;;7.22;3.35;;;;;;;;;;5032549;28;20045;-57
2023/03/31 08:05:52;;;;;;;7.78;3.42;;;;;;;;;;5047750;28;20087;-57
2023/03/31 08:08:19;;;;;;;8.65;3.78;;;;;;;;;;5053340;28;20040;-57
2023/03/31 08:10:46;;;;;;;7.50;3.50;;;;;;;;;;5034511;28;20094;-57
2023/03/31 08:13:12;;;;;;;5.85;3.03;;;;;;;;;;5027393;28;20048;-57
2023/03/31 08:15:39;;;;;;;5.40;2.85;;;;;;;;;;5055751;28;20071;-57
2023/03/31 08:18:05;;;;;;;5.97;3.42;;;;;;;;;;5036078;28;20107;-57
2023/03/31 08:20:31;;;;;;;6.15;3.35;;;;;;;;;;5048406;28;20072;-57
2023/03/31 08:22:58;;;;;;;10.15;3.30;;;;;;;;;;5030130;28;20486;-57
2023/03/31 08:25:24;;;;;;;7.38;3.47;;;;;;;;;;5028556;28;20040;-57
2023/03/31 08:27:50;;;;;;;4.93;3.25;;;;;;;;;;5051896;28;20066;-57
2023/03/31 08:30:17;;;;;;;5.38;3.45;;;;;;;;;;5044903;28;20045;-57
2023/03/31 08:32:44;;;;;;;8.35;4.65;;;;;;;;;;5041942;28;20033;-57
2023/03/31 08:35:10;;;;;;;6.35;3.67;;;;;;;;;;5052806;28;20156;-57
2023/03/31 08:37:37;;;;;;;5.95;3.40;;;;;;;;;;5044461;28;20041;-57
2023/03/31 08:40:08;;;;;;;9.45;4.28;;;;;;;;;;5047312;28;20060;-57
2023/03/31 08:42:37;;;;;;;11.45;4.22;;;;;;;;;;5049739;28;20049;-57
2023/03/31 08:45:11;;;;;;;6.03;3.83;;;;;;;;;;5049893;28;20057;-57
2023/03/31 08:47:38;;;;;;;8.45;5.43;;;;;;;;;;5047668;28;20057;-57
2023/03/31 08:50:13;;;;;;;5.60;3.90;;;;;;;;;;5013630;28;20143;-57
2023/03/31 08:52:49;;;;;;;8.15;4.47;;;;;;;;;;5027043;28;20055;-57
2023/03/31 08:55:23;;;;;;;8.77;3.55;;;;;;;;;;5047958;28;20524;-57
2023/03/31 08:58:08;;;;;;;6.18;4.22;;;;;;;;;;5029219;28;20045;-57
2023/03/31 09:00:40;;;;;;;5.40;3.90;;;;;;;;;;5044974;28;20056;-57
2023/03/31 09:03:11;;;;;;;7.30;4.50;;;;;;;;;;5046414;28;20328;-57
2023/03/31 09:05:43;;;;;;;9.75;4.20;;;;;;;;;;5046718;28;20049;-58
2023/03/31 09:08:24;;;;;;;7.13;4.15;;;;;;;;;;5048115;28;20541;-57
2023/03/31 09:10:51;;;;;;;15.35;3.90;;;;;;;;;;5054356;28;20124;-57
2023/03/31 09:13:22;;;;;;;7.95;4.07;;;;;;;;;;5054129;28;20043;-57
2023/03/31 09:15:48;;;;;;;11.88;4.70;;;;;;;;;;5046045;28;20448;-57
2023/03/31 09:18:34;;;;;;;10.98;5.07;;;;;;;;;;5028942;28;20037;-57
2023/03/31 09:21:06;;;;;;;8.95;4.43;;;;;;;;;;5036195;28;20037;-57
2023/03/31 09:23:35;;;;;;;13.52;5.05;;;;;;;;;;5049534;28;20045;-57
2023/03/31 09:26:03;;;;;;;11.38;5.47;;;;;;;;;;5045982;28;20422;-57
2023/03/31 09:28:39;;;;;;;7.88;4.70;;;;;;;;;;5044188;28;20040;-57
2023/03/31 09:31:13;;;;;;;8.48;4.45;;;;;;;;;;5055061;28;20037;-57
2023/03/31 09:33:44;;;;;;;5.60;4.38;;;;;;;;;;5043685;28;20348;-57
2023/03/31 09:36:14;;;;;;;9.27;4.28;;;;;;;;;;5046712;28;20048;-57
2023/03/31 09:38:42;;;;;;;7.60;3.92;;;;;;;;;;5043265;28;20064;-57
2023/03/31 09:41:08;;;;;;;8.30;4.18;;;;;;;;;;5036113;28;20166;-57
2023/03/31 09:43:35;;;;;;;9.00;4.20;;;;;;;;;;5039782;28;20100;-57
2023/03/31 09:46:01;;;;;;;5.85;3.58;;;;;;;;;;5040229;28;20077;-58
2023/03/31 09:48:30;;;;;;;8.50;3.70;;;;;;;;;;5050370;28;21029;-57
2023/03/31 09:51:00;;;;;;;9.40;3.65;;;;;;;;;;5048201;28;20037;-57
2023/03/31 09:53:34;;;;;;;8.02;2.67;;;;;;;;;;5049397;28;20040;-57
2023/03/31 09:56:02;;;;;;;5.25;2.28;;;;;;;;;;5045039;28;20057;-57
2023/03/31 09:58:28;;;;;;;6.45;2.88;;;;;;;;;;5051773;28;20116;-57
2023/03/31 10:01:02;;;;;;;5.07;2.53;;;;;;;;;;5050024;28;20044;-57
2023/03/31 10:03:35;;;;;;;4.93;2.88;;;;;;;;;;5049307;28;20130;-58
2023/03/31 10:06:01;;;;;;;6.93;3.97;;;;;;;;;;5027259;28;20497;-57
2023/03/31 10:08:39;;;;;;;7.95;3.28;;;;;;;;;;5036476;28;20041;-57
2023/03/31 10:11:05;;;;;;;7.63;3.47;;;;;;;;;;5024231;28;21096;-57
2023/03/31 10:13:40;;;;;;;6.35;3.35;;;;;;;;;;5028493;28;20056;-57
2023/03/31 10:16:11;;;;;;;7.65;4.10;;;;;;;;;;5035917;28;20033;-57
2023/03/31 10:18:41;;;;;;;11.02;3.75;;;;;;;;;;5050712;28;20497;-57
2023/03/31 10:21:17;;;;;;;7.75;3.67;;;;;;;;;;5044965;28;20041;-57
2023/03/31 10:23:46;;;;;;;8.40;4.45;;;;;;;;;;5048000;28;20053;-57
2023/03/31 10:26:14;;;;;;;11.60;3.75;;;;;;;;;;5049972;28;20496;-58
2023/03/31 10:28:40;;;;;;;15.15;4.82;;;;;;;;;;5047949;28;20072;-58
2023/03/31 10:31:07;;;;;;;8.23;4.72;;;;;;;;;;5051250;28;20041;-57
2023/03/31 10:33:38;;;;;;;10.30;4.53;;;;;;;;;;5049301;28;20068;-57
2023/03/31 10:36:08;;;;;;;11.90;4.82;;;;;;;;;;5058205;28;20070;-57
2023/03/31 10:38:39;;;;;;;8.30;5.20;;;;;;;;;;5047244;28;20052;-57
2023/03/31 10:41:05;;;;;;;10.13;4.43;;;;;;;;;;5051764;28;20139;-60
2023/03/31 10:43:38;;;;;;;8.20;5.03;;;;;;;;;;5048560;28;20179;-58
2023/03/31 10:46:05;;;;;;;10.93;5.03;;;;;;;;;;5050203;28;20037;-57
2023/03/31 10:48:33;;;;;;;9.35;5.15;;;;;;;;;;5051233;28;20057;-58
2023/03/31 10:51:19;;;;;;;11.85;4.32;;;;;;;;;;5049900;28;20340;-57
2023/03/31 10:53:47;;;;;;;10.20;3.85;;;;;;;;;;5051230;28;20040;-57
2023/03/31 10:56:13;;;;;;;14.43;4.55;;;;;;;;;;5033091;28;20056;-58
2023/03/31 10:58:45;;;;;;;10.38;4.05;;;;;;;;;;5050020;28;20045;-57
2023/03/31 11:01:28;;;;;;;7.85;3.25;;;;;;;;;;5045424;28;20041;-58
2023/03/31 11:04:00;;;;;;;7.88;4.50;;;;;;;;;;5046882;28;20142;-57
2023/03/31 11:06:27;;;;;;;9.93;4.43;;;;;;;;;;5049461;28;20514;-58
2023/03/31 11:09:09;;;;;;;7.57;4.43;;;;;;;;;;5049937;28;20110;-58
2023/03/31 11:11:38;;;;;;;9.23;3.97;;;;;;;;;;5045125;28;20094;-58
2023/03/31 11:14:12;;;;;;;12.02;4.28;;;;;;;;;;5050378;28;20102;-58
2023/03/31 11:16:53;;;;;;;10.70;4.43;;;;;;;;;;5045809;28;20562;-58
2023/03/31 11:19:25;;;;;;;8.98;4.28;;;;;;;;;;5017342;28;20189;-57
2023/03/31 11:22:10;;;;;;;8.63;3.95;;;;;;;;;;5057291;28;20078;-58
2023/03/31 11:24:36;;;;;;;6.53;3.53;;;;;;;;;;5040966;28;20450;-58
2023/03/31 11:27:19;;;;;;;8.20;4.25;;;;;;;;;;5049254;28;20052;-58
2023/03/31 11:29:51;;;;;;;11.80;4.50;;;;;;;;;;5049757;28;20502;-58
2023/03/31 11:32:31;;;;;;;7.53;3.73;;;;;;;;;;5032033;28;20033;-57
2023/03/31 11:34:57;;;;;;;11.55;4.57;;;;;;;;;;5032333;28;20411;-58
2023/03/31 11:37:34;;;;;;;9.05;4.10;;;9.80;99.90;;;;;;5046568;28;20047;-58
2023/03/31 11:40:00;;;;;;;8.07;2.95;;;12.20;99.90;;;;;;5046213;28;20048;-57
2023/03/31 11:42:33;;;;;;;13.68;3.15;;;12.20;99.90;;;;;;5039395;28;20049;-57
2023/03/31 11:45:30;;;;;;;9.48;3.83;;;12.20;99.90;;;;;;5044743;28;20033;-57
2023/03/31 11:48:02;;;;;;;6.43;2.33;;;12.20;99.90;;;;;;5049022;28;20085;-57
2023/03/31 11:50:38;;;;;;;9.73;2.17;;;12.20;99.90;;;;;;5049835;28;20604;-57
2023/03/31 11:53:19;;;;;;;5.93;2.70;;;12.20;99.90;;;;;;5044805;28;20395;-57
2023/03/31 11:55:50;;;;;;;8.90;3.33;;;12.20;99.90;;;;;;5048473;28;20136;-58
2023/03/31 11:58:23;;;;;;;7.30;3.20;;;12.10;99.90;;;;;;5049636;28;20076;-57
2023/03/31 12:00:58;;;;;;;9.93;3.13;;;12.10;99.90;;;;;;5054076;28;20079;-57
2023/03/31 12:03:42;;;;;;;5.15;2.83;;;12.10;99.90;;;;;;5035675;28;20441;-58
2023/03/31 12:06:18;;;;;;;9.23;3.45;;;12.10;99.90;;;;;;5047591;28;20044;-57
2023/03/31 12:09:21;;;;;;;10.23;3.00;;;12.00;99.90;;;;;;5057107;28;20048;-58
2023/03/31 12:11:52;;;;;;;6.80;3.58;;;12.00;99.90;;;;;;5046822;28;20041;-58
2023/03/31 12:14:24;;;;;;;6.00;3.08;;;11.90;99.90;;;;;;5033195;28;20040;-57
2023/03/31 12:16:53;;;;;;;6.00;3.20;;;11.80;99.90;;;;;;5029340;28;20056;-58
2023/03/31 12:19:32;;;;;;;5.15;2.80;;;11.80;99.90;;;;;;5052025;28;20033;-57
2023/03/31 12:22:14;;;;;;;9.30;3.65;;;11.80;99.90;;;;;;5045086;28;20044;-57
2023/03/31 12:24:40;;;;;;;9.07;3.78;;;11.80;99.90;;;;;;5043668;28;20068;-57
2023/03/31 12:27:31;;;;;;;10.10;4.40;;;11.80;99.90;;;;;;5053369;28;20500;-58
2023/03/31 12:30:05;;;;;;;8.77;4.30;;;11.80;99.90;;;;;;5051907;28;20664;-58
2023/03/31 12:32:35;;;;;;;14.77;6.30;;;11.90;99.90;;;;;;5029135;28;20084;-58
2023/03/31 12:35:43;;;;;;;14.45;5.03;;;11.90;99.90;;;;;;5030187;28;20049;-58
2023/03/31 12:38:36;;;;;;;11.98;4.28;;;12.00;99.90;;;;;;5044670;28;20062;-58
2023/03/31 12:41:14;;;;;;;11.57;4.43;;;12.00;99.90;;;;;;5039808;28;20473;-58
2023/03/31 12:44:11;;;;;;;8.95;4.75;;;12.00;99.90;;;;;;5053358;28;20057;-58
2023/03/31 12:46:56;;;;;;;9.52;4.65;;;;;;;;;;5044987;28;20086;-58
2023/03/31 12:49:41;;;;;;;5.97;4.18;;;;;;;;;;5040140;28;20126;-58
2023/03/31 12:52:11;;;;;;;13.48;5.25;;;;;;;;;;5038114;28;20032;-58
2023/03/31 12:54:57;;;;;;;8.07;4.47;;;;;;;;;;5047448;28;20095;-58
2023/03/31 12:57:24;;;;;;;10.02;4.10;;;;;;;;;;5049756;28;20055;-58
2023/03/31 13:00:23;;;;;;;7.55;4.32;;;;;;;;;;5051644;28;20240;-58
2023/03/31 13:02:50;;;;;;;9.77;3.75;;;;;;;;;;5000336;28;20057;-58
2023/03/31 13:05:35;;;;;;;12.57;3.95;;;;;;;;;;5046252;28;20414;-58
2023/03/31 13:08:01;;;;;;;8.45;3.85;;;;;;;;;;5047823;28;20045;-58
2023/03/31 13:10:29;;;;;;;9.05;3.72;;;;;;;;;;5023474;28;20041;-58
2023/03/31 13:13:14;;;;;;;8.00;2.80;;;;;;;;;;5044831;28;20033;-58
2023/03/31 13:15:40;;;;;;;11.70;2.30;;;;;;;;;;5023146;28;20045;-58
2023/03/31 13:18:07;;;;;;;6.10;2.47;;;;;;;;;;5026112;28;20422;-58
2023/03/31 13:20:37;;;;;;;4.95;2.05;;;;;;;;;;5042133;28;20060;-58
2023/03/31 13:23:27;;;;;;;12.45;2.65;;;;;;;;;;5050628;28;20048;-58
2023/03/31 13:25:57;;;;;;;3.47;2.00;;;;;;;;;;5046805;28;20088;-58
2023/03/31 13:28:25;;;;;;;9.20;3.13;;;;;;;;;;5043057;28;20037;-58
2023/03/31 13:30:51;;;;;;;6.85;2.38;;;;;;;;;;5026964;28;20039;-58
2023/03/31 13:33:22;;;;;;;5.10;2.38;;;;;;;;;;5042986;28;20033;-59
2023/03/31 13:35:56;;;;;;;5.40;2.47;;;;;;;;;;5027710;28;20041;-58
2023/03/31 13:38:46;;;;;;;6.55;1.88;;;;;;;;;;5046963;28;20128;-59
2023/03/31 13:41:30;;;;;;;6.88;2.10;;;;;;;;;;5033004;28;20471;-57
2023/03/31 13:44:32;;;;;;;3.95;1.70;;;;;;;;;;5028096;28;20068;-58
2023/03/31 13:46:58;;;;;;;5.25;1.88;;;;;;;;;;4938095;29;20059;-58
2023/03/31 13:49:45;;;;;;;3.65;1.58;;;;;;;;;;5009504;28;20048;-58
2023/03/31 13:52:12;;;;;;;5.15;1.67;;;;;;;;;;5040757;28;20048;-58
2023/03/31 13:54:50;;;;;;;6.15;1.98;;;;;;;;;;5047130;28;20043;-58
2023/03/31 13:57:19;;;;;;;5.32;1.75;;;;;;;;;;5028025;28;20486;-59
2023/03/31 13:59:57;;;;;;;6.00;2.05;;;;;;;;;;5052720;28;20092;-58
2023/03/31 14:02:42;;;;;;;7.15;2.30;;;;;;;;;;5032948;28;20399;-58
2023/03/31 14:05:11;;;;;;;8.10;1.90;;;;;;;;;;5049860;28;20548;-58
2023/03/31 14:07:45;;;;;;;6.97;1.80;;;;;;;;;;5048307;28;20036;-58
2023/03/31 14:10:31;;;;;;;10.23;2.55;;;;;;;;;;5052688;28;20055;-58
2023/03/31 14:13:08;;;;;;;3.47;1.80;;;;;;;;;;5047702;28;20041;-58
2023/03/31 14:15:36;;;;;;;8.60;2.10;;;;;;;;;;5045856;28;20053;-58
2023/03/31 14:18:03;;;;;;;9.30;3.38;;;;;;;;;;5056392;28;20485;-58
2023/03/31 14:20:40;;;;;;;3.40;1.60;;;;;;;;;;5046308;28;20034;-58
2023/03/31 14:23:09;;;;;;;3.90;1.63;;;;;;;;;;5030809;28;20104;-58
2023/03/31 14:25:54;;;;;;;5.78;1.95;;;;;;;;;;5049079;28;20048;-58
2023/03/31 14:28:32;;;;;;;6.10;1.67;;;;;;;;;;5049017;28;20399;-59
2023/03/31 14:31:11;;;;;;;5.30;1.88;;;;;;;;;;5053560;28;20044;-58
2023/03/31 14:33:37;;;;;;;5.65;3.03;;;;;;;;;;5050609;28;20045;-58
2023/03/31 14:36:07;;;;;;;5.32;2.17;;;;;;;;;;5016061;28;20846;-58
2023/03/31 14:38:33;;;;;;;4.82;1.90;;;;;;;;;;5045509;28;20073;-58
2023/03/31 14:41:00;;;;;;;4.45;1.95;;;;;;;;;;5049129;28;20045;-58
2023/03/31 14:43:27;;;;;;;4.43;2.15;;;;;;;;;;5044048;28;20163;-58
2023/03/31 14:45:57;;;;;;;3.97;1.95;;;;;;;;;;5028540;28;20572;-58
2023/03/31 14:48:24;;;;;;;5.30;2.20;;;;;;;;;;5028274;28;20056;-58